logo
Search for airport 
image banner adimage banner adimage banner ad
image banner ad

MMCHC - Chiconcuac

Located in Xochitepec, Mexico

ICAO - , IATA -

Data provided by Airmate  

General information

Coordinates: N18°46'33" W99°12'51"
Elevation is 3799 feet MSL.
Magnetic variation is 4° East
View others Airports in Moreloa

Operational data

Special qualification required
Current time UTC:
Current local time:
TAF: TAF MMCB 131606Z 1318/1418 16008KT 6SM HZ SCT025 FM140300 35004KT 6SM HZ SKC TEMPO 1412/1416 4SM HZ FM141700 16005KT 6SM HZ SKC
View NOTAMs / SUP AIP / TFR affecting this airport [VIEW]
Communications frequencies: [VIEW]

Runways:

RWY identifierQFULength (ft)Width (ft)SurfaceLDA (ft)
28289°230038ASPH
10109°230038ASPH

Airport contact information

Address: Xochitepec Mexico

Satellite view of MMCHC